Time;durP1;ratioP1;P1;durP2;ratioP2;P2;SDS_P1;SDS_P2;PMS_P1;PMS_P2;Temp;Humidity;BMP_temperature;BMP_pressure;BME280_temperature;BME280_humidity;BME280_pressure;Samples;Min_cycle;Max_cycle;Signal;HPM_P1;HPM_P2
2023/10/13 00:01:54;;;;;;;40.58;5.45;;;17.50;99.90;;;;;;5033296;28;20055;-73
2023/10/13 00:04:22;;;;;;;64.28;7.93;;;17.50;99.90;;;;;;5025149;28;21251;-73
2023/10/13 00:06:48;;;;;;;49.72;7.68;;;17.60;99.90;;;;;;5035593;28;20090;-73
2023/10/13 00:09:14;;;;;;;47.53;7.10;;;17.60;99.90;;;;;;5018845;28;20393;-73
2023/10/13 00:11:44;;;;;;;64.18;7.80;;;17.70;99.90;;;;;;5039826;28;20036;-73
2023/10/13 00:14:14;;;;;;;58.92;8.60;;;17.70;99.90;;;;;;5034472;28;20595;-73
2023/10/13 00:16:40;;;;;;;69.50;9.63;;;17.70;99.90;;;;;;5026511;28;20538;-73
2023/10/13 00:19:06;;;;;;;75.30;7.90;;;17.70;99.90;;;;;;5035492;28;20099;-73
2023/10/13 00:21:31;;;;;;;68.28;8.02;;;17.70;99.90;;;;;;5013738;28;20029;-73
2023/10/13 00:24:05;;;;;;;60.20;7.88;;;17.70;99.90;;;;;;5031128;28;20100;-73
2023/10/13 00:26:35;;;;;;;56.85;7.70;;;17.70;99.90;;;;;;5025028;28;20057;-73
2023/10/13 00:31:33;;;;;;;78.60;9.85;;;17.70;99.90;;;;;;5023880;28;20158;-74
2023/10/13 00:34:09;;;;;;;91.50;12.35;;;17.70;99.90;;;;;;5035501;28;20041;-74
2023/10/13 00:36:35;;;;;;;85.78;12.63;;;17.60;99.90;;;;;;5018598;28;20029;-73
2023/10/13 00:39:01;;;;;;;97.60;14.05;;;17.40;99.90;;;;;;5034976;28;20585;-73
2023/10/13 00:41:49;;;;;;;100.63;14.73;;;17.20;99.90;;;;;;5024379;28;20045;-74
2023/10/13 00:44:16;;;;;;;99.97;14.50;;;17.20;99.90;;;;;;5031633;28;20090;-72
2023/10/13 00:46:44;;;;;;;84.65;11.95;;;17.20;99.90;;;;;;5021920;28;20083;-74
2023/10/13 00:49:15;;;;;;;96.05;12.00;;;17.20;99.90;;;;;;5027371;28;20417;-73
2023/10/13 00:51:46;;;;;;;81.07;11.60;;;17.20;99.90;;;;;;5014677;28;20489;-73
2023/10/13 00:54:16;;;;;;;92.63;12.73;;;17.20;99.90;;;;;;5040141;28;20033;-73
2023/10/13 00:56:57;;;;;;;92.28;13.23;;;17.20;99.90;;;;;;5023712;28;20037;-73
2023/10/13 00:59:25;;;;;;;80.78;12.45;;;17.20;99.90;;;;;;5035864;28;20098;-73
2023/10/13 01:01:55;;;;;;;92.82;13.60;;;17.20;99.90;;;;;;5023310;28;20036;-73
2023/10/13 01:04:24;;;;;;;85.18;12.68;;;17.20;99.90;;;;;;5029743;28;20110;-73
2023/10/13 01:06:51;;;;;;;;;;;17.10;99.90;;;;;;5024917;28;20037;-73
2023/10/13 01:09:17;;;;;;;80.85;13.57;;;17.10;99.90;;;;;;5034649;28;19917;-73
2023/10/13 01:11:44;;;;;;;102.70;14.63;;;17.20;99.90;;;;;;5020227;28;20064;-74
2023/10/13 01:14:11;;;;;;;72.20;11.90;;;17.10;99.90;;;;;;5037314;28;21154;-73
2023/10/13 01:16:43;;;;;;;64.95;10.80;;;17.10;99.90;;;;;;5019017;28;20638;-72
2023/10/13 01:19:12;;;;;;;73.45;12.32;;;17.10;99.90;;;;;;5035602;28;20025;-75
2023/10/13 01:21:40;;;;;;;63.67;12.20;;;17.10;99.90;;;;;;5023680;28;20382;-74
2023/10/13 01:24:07;;;;;;;62.60;12.17;;;17.10;99.90;;;;;;5030368;28;20037;-74
2023/10/13 01:26:38;;;;;;;62.30;11.55;;;17.10;99.90;;;;;;5035506;28;20045;-75
2023/10/13 01:29:12;;;;;;;58.83;11.93;;;17.10;99.90;;;;;;5032384;28;20691;-74
2023/10/13 01:31:45;;;;;;;56.40;11.65;;;17.10;99.90;;;;;;5036464;28;20147;-75
2023/10/13 01:34:12;;;;;;;61.22;11.95;;;17.10;99.90;;;;;;5028208;28;20059;-74
2023/10/13 01:36:40;;;;;;;57.40;11.30;;;17.00;99.90;;;;;;5032190;28;20126;-74
2023/10/13 01:39:07;;;;;;;45.60;10.60;;;17.00;99.90;;;;;;5024802;28;20029;-74
2023/10/13 01:41:37;;;;;;;51.50;12.07;;;16.90;99.90;;;;;;5036275;28;20468;-74
2023/10/13 01:44:03;;;;;;;59.22;11.48;;;16.90;99.90;;;;;;5020244;28;20029;-73
2023/10/13 01:46:29;;;;;;;53.67;10.80;;;16.90;99.90;;;;;;5041187;28;20029;-73
2023/10/13 01:48:57;;;;;;;46.35;10.90;;;16.90;99.90;;;;;;5024256;28;20043;-73
2023/10/13 01:51:28;;;;;;;57.33;10.85;;;16.90;99.90;;;;;;5031842;28;20037;-72
2023/10/13 01:53:57;;;;;;;46.55;10.52;;;16.90;99.90;;;;;;5020532;28;20497;-72
2023/10/13 01:56:24;;;;;;;63.40;10.95;;;17.00;99.90;;;;;;5034186;28;20081;-72
2023/10/13 01:58:51;;;;;;;45.03;10.63;;;17.00;99.90;;;;;;5024686;28;20076;-73
2023/10/13 02:01:26;;;;;;;60.15;10.50;;;17.00;99.90;;;;;;5033816;28;20044;-72
2023/10/13 02:04:02;;;;;;;61.50;10.55;;;17.10;99.90;;;;;;5006591;28;20066;-72
2023/10/13 02:06:32;;;;;;;48.33;10.38;;;17.10;99.90;;;;;;5031858;28;20028;-73
2023/10/13 02:09:10;;;;;;;47.88;9.73;;;17.10;99.90;;;;;;5024913;28;20607;-73
2023/10/13 02:11:39;;;;;;;52.88;11.75;;;17.10;99.90;;;;;;5032980;28;20071;-73
2023/10/13 02:14:05;;;;;;;46.30;9.80;;;17.20;99.90;;;;;;5024511;28;20033;-72
2023/10/13 02:16:31;;;;;;;42.97;9.02;;;17.20;99.90;;;;;;5034430;28;20043;-72
2023/10/13 02:18:57;;;;;;;43.75;9.00;;;17.20;99.90;;;;;;5046333;28;20036;-72
2023/10/13 02:21:31;;;;;;;37.55;9.13;;;17.30;99.90;;;;;;5035424;28;20198;-72
2023/10/13 02:24:03;;;;;;;36.13;9.30;;;17.30;99.90;;;;;;5016394;28;20029;-72
2023/10/13 02:26:31;;;;;;;28.67;7.40;;;17.30;99.90;;;;;;5034724;28;20068;-72
2023/10/13 02:29:00;;;;;;;30.40;7.47;;;17.40;99.90;;;;;;5019183;28;21087;-72
2023/10/13 02:31:27;;;;;;;26.95;7.70;;;17.40;99.90;;;;;;5030496;28;20032;-73
2023/10/13 02:33:53;;;;;;;34.67;8.18;;;17.50;99.90;;;;;;5023578;28;20087;-73
2023/10/13 02:36:22;;;;;;;32.72;7.70;;;17.60;99.90;;;;;;5029746;28;20564;-73
2023/10/13 02:38:50;;;;;;;39.53;8.50;;;17.60;99.90;;;;;;5032174;28;21473;-73
2023/10/13 02:41:25;;;;;;;35.13;8.27;;;17.70;99.90;;;;;;5026647;28;20041;-74
2023/10/13 02:43:52;;;;;;;37.58;8.00;;;17.80;99.90;;;;;;5028973;28;20032;-74
2023/10/13 02:46:21;;;;;;;44.08;8.65;;;17.80;99.90;;;;;;5024114;28;20042;-74
2023/10/13 02:48:52;;;;;;;42.28;8.40;;;17.80;99.90;;;;;;5033087;28;20278;-73
2023/10/13 02:51:27;;;;;;;26.70;7.90;;;17.90;99.90;;;;;;5014899;28;20037;-74
2023/10/13 02:53:53;;;;;;;33.97;7.20;;;17.90;99.90;;;;;;5032435;28;20063;-74
2023/10/13 02:56:20;;;;;;;44.40;8.35;;;17.90;99.90;;;;;;5016620;28;20106;-74
2023/10/13 02:58:53;;;;;;;30.38;7.03;;;17.90;99.90;;;;;;5031292;28;20055;-74
2023/10/13 03:01:20;;;;;;;40.80;7.78;;;18.00;99.90;;;;;;5019398;28;20064;-74
2023/10/13 03:03:51;;;;;;;29.00;8.10;;;17.90;99.90;;;;;;5030779;28;20033;-74
2023/10/13 03:06:21;;;;;;;33.42;7.75;;;18.00;99.90;;;;;;5027621;28;20040;-74
2023/10/13 03:08:47;;;;;;;31.35;7.65;;;18.00;99.90;;;;;;5035931;28;20071;-74
2023/10/13 03:11:13;;;;;;;34.95;7.95;;;18.00;99.90;;;;;;5022467;28;20519;-74
2023/10/13 03:13:44;;;;;;;46.15;8.40;;;18.00;99.90;;;;;;5036907;28;21424;-74
2023/10/13 03:16:15;;;;;;;48.58;8.77;;;18.00;99.90;;;;;;5021156;28;20036;-74
2023/10/13 03:18:51;;;;;;;32.75;7.78;;;18.10;99.90;;;;;;5035150;28;20116;-74
2023/10/13 03:21:28;;;;;;;48.78;7.53;;;18.10;99.90;;;;;;5027571;28;20427;-73
2023/10/13 03:23:56;;;;;;;44.17;7.53;;;18.10;99.90;;;;;;5037083;28;20055;-74
2023/10/13 03:26:22;;;;;;;40.92;8.38;;;18.10;99.90;;;;;;5028841;28;20059;-75
2023/10/13 03:28:52;;;;;;;41.15;7.97;;;18.10;99.90;;;;;;5039856;28;20497;-73
2023/10/13 03:31:19;;;;;;;31.23;6.90;;;18.20;99.80;;;;;;5026450;28;20064;-74
2023/10/13 03:33:46;;;;;;;33.13;7.78;;;18.20;99.20;;;;;;5042036;28;20037;-74
2023/10/13 03:36:35;;;;;;;36.00;7.68;;;18.20;99.20;;;;;;5023341;28;20508;-74
2023/10/13 03:38:59;;;;;;;40.28;7.72;;;18.20;99.50;;;;;;5036612;28;20037;-74
2023/10/13 03:41:30;;;;;;;29.30;6.72;;;18.10;99.20;;;;;;5024715;28;20565;-74
2023/10/13 03:44:08;;;;;;;24.40;6.25;;;18.30;97.80;;;;;;5039210;28;20029;-74
2023/10/13 03:46:36;;;;;;;38.67;8.33;;;18.40;96.90;;;;;;5027034;28;20040;-74
2023/10/13 03:49:05;;;;;;;34.80;6.03;;;18.40;96.90;;;;;;5041009;28;20280;-74
2023/10/13 03:51:31;;;;;;;25.58;6.60;;;18.50;96.70;;;;;;5024558;28;20173;-74
2023/10/13 03:53:58;;;;;;;30.25;6.57;;;18.50;96.70;;;;;;5037974;28;20624;-74
2023/10/13 03:56:26;;;;;;;23.42;6.03;;;18.50;96.30;;;;;;5035486;28;20033;-75
2023/10/13 03:58:54;;;;;;;41.40;7.53;;;18.50;96.10;;;;;;5025294;28;20037;-74
2023/10/13 04:01:31;;;;;;;29.23;6.18;;;18.50;95.80;;;;;;5039916;28;20048;-74
2023/10/13 04:04:03;;;;;;;30.27;7.70;;;18.60;95.40;;;;;;5023573;28;20393;-75
2023/10/13 04:07:02;;;;;;;24.45;7.15;;;18.60;95.70;;;;;;5039216;28;20075;-74
2023/10/13 04:15:14;;;;;;;35.92;7.50;;;18.50;95.80;;;;;;5034485;28;20033;-74
2023/10/13 04:17:25;;;;;;;41.83;7.95;;;18.50;95.70;;;;;;5025210;28;20045;-74
2023/10/13 04:20:12;;;;;;;40.63;7.40;;;18.50;95.90;;;;;;5034513;28;20067;-74
2023/10/13 04:23:17;;;;;;;44.67;8.18;;;18.50;95.90;;;;;;5026103;28;20033;-74
2023/10/13 04:25:35;;;;;;;30.67;6.88;;;18.60;95.80;;;;;;5033726;28;20041;-74
2023/10/13 04:29:27;;;;;;;32.95;6.97;;;18.60;95.30;;;;;;5025605;28;20068;-74
2023/10/13 04:31:06;;;;;;;32.22;6.40;;;18.60;95.20;;;;;;5031213;28;20040;-74
2023/10/13 04:36:13;;;;;;;35.85;8.07;;;18.60;95.20;;;;;;5040092;28;20051;-73
2023/10/13 04:38:55;;;;;;;;;;;18.60;95.40;;;;;;5024866;28;20021;-74
2023/10/13 04:41:25;;;;;;;33.25;7.15;;;18.60;95.20;;;;;;5038790;28;19924;-73
2023/10/13 04:44:04;;;;;;;34.35;7.43;;;18.60;95.40;;;;;;5024901;28;20190;-73
2023/10/13 04:49:49;;;;;;;38.95;7.53;;;18.60;95.80;;;;;;5029180;28;20040;-74
2023/10/13 04:52:13;;;;;;;36.83;8.48;;;18.50;95.50;;;;;;5031948;28;20029;-74
2023/10/13 04:54:54;;;;;;;37.97;7.15;;;18.60;95.40;;;;;;5027807;28;20565;-74
2023/10/13 04:57:34;;;;;;;34.10;7.63;;;18.60;95.40;;;;;;5036157;28;20677;-73
2023/10/13 05:04:08;;;;;;;37.85;7.78;;;18.70;95.20;;;;;;5042774;28;19917;-74
2023/10/13 05:48:11;;;;;;;38.35;8.20;;;19.00;94.80;;;;;;5026779;28;20492;-76
2023/10/13 05:49:52;;;;;;;49.00;8.30;;;19.10;94.80;;;;;;5034851;28;20043;-74
2023/10/13 06:28:40;;;;;;;51.15;8.57;;;19.10;94.90;;;;;;5031858;28;20746;-73
2023/10/13 06:28:50;;;;;;;54.88;8.73;;;19.00;95.00;;;;;;5031923;28;20059;-75
2023/10/13 06:28:51;;;;;;;47.35;9.38;;;19.10;95.10;;;;;;5024541;28;20028;-75
2023/10/13 06:31:06;;;;;;;40.28;8.27;;;19.10;94.50;;;;;;5033140;28;20116;-75
2023/10/13 06:33:35;;;;;;;45.63;7.60;;;19.10;94.50;;;;;;5017389;28;20025;-73
2023/10/13 06:36:03;;;;;;;30.58;8.05;;;19.10;94.10;;;;;;5032715;28;20048;-75
2023/10/13 06:38:35;;;;;;;38.50;8.25;;;19.10;94.10;;;;;;5017098;28;20033;-75
2023/10/13 06:41:05;;;;;;;42.88;9.20;;;19.10;94.00;;;;;;5032885;28;20520;-75
2023/10/13 06:43:32;;;;;;;49.90;7.82;;;19.10;93.90;;;;;;5020253;28;20040;-74
2023/10/13 06:46:01;;;;;;;43.38;8.68;;;19.20;93.60;;;;;;5021396;28;20637;-74
2023/10/13 06:48:26;;;;;;;34.78;6.63;;;19.10;93.70;;;;;;5016294;28;20095;-74
2023/10/13 06:50:52;;;;;;;23.98;6.72;;;19.40;91.40;;;;;;5028825;28;20822;-75
2023/10/13 06:53:19;;;;;;;25.73;6.53;;;19.50;91.60;;;;;;5022289;28;20037;-74
2023/10/13 06:55:47;;;;;;;38.92;7.25;;;19.50;91.10;;;;;;5032718;28;20040;-74
2023/10/13 06:58:14;;;;;;;35.63;7.22;;;19.50;91.60;;;;;;5017203;28;20396;-74
2023/10/13 07:00:41;;;;;;;37.92;8.13;;;19.50;92.10;;;;;;5028561;28;20371;-74
2023/10/13 07:03:07;;;;;;;39.30;7.72;;;19.40;92.40;;;;;;5019658;28;20043;-74
2023/10/13 07:05:35;;;;;;;42.10;7.82;;;19.40;92.60;;;;;;5023711;28;20420;-74
2023/10/13 07:08:04;;;;;;;38.10;7.30;;;19.30;92.90;;;;;;5024440;28;20028;-73
2023/10/13 07:10:30;;;;;;;37.15;8.93;;;19.30;92.90;;;;;;5025654;28;20145;-74
2023/10/13 07:13:00;;;;;;;35.60;8.88;;;19.20;93.50;;;;;;5027098;28;20559;-75
2023/10/13 07:15:27;;;;;;;44.70;9.23;;;19.00;94.00;;;;;;5020317;28;20029;-74
2023/10/13 07:17:59;;;;;;;35.08;7.85;;;18.80;94.30;;;;;;5024521;28;20400;-74
2023/10/13 07:23:05;;;;;;;46.15;8.65;;;18.70;95.20;;;;;;5025021;28;20124;-76
2023/10/13 07:25:33;;;;;;;47.08;8.57;;;18.60;94.90;;;;;;4999337;28;20076;-75
2023/10/13 07:28:00;;;;;;;31.58;8.70;;;18.60;94.80;;;;;;5022205;28;20029;-75
2023/10/13 07:30:27;;;;;;;39.72;8.35;;;18.70;94.80;;;;;;5015130;28;20032;-75
2023/10/13 07:32:59;;;;;;;41.23;8.33;;;18.70;94.70;;;;;;5022632;28;20056;-73
2023/10/13 07:35:25;;;;;;;42.58;7.45;;;18.80;94.50;;;;;;5017675;28;21007;-74
2023/10/13 07:37:53;;;;;;;46.90;9.05;;;18.80;93.80;;;;;;5020937;28;20025;-75
2023/10/13 07:40:41;;;;;;;39.33;7.75;;;18.90;93.80;;;;;;5015788;28;20400;-74
2023/10/13 07:43:09;;;;;;;40.90;8.32;;;19.00;93.60;;;;;;5028829;28;20044;-74
2023/10/13 07:45:37;;;;;;;35.58;9.18;;;19.10;93.80;;;;;;5025338;28;20041;-78
2023/10/13 07:48:12;;;;;;;50.10;8.70;;;19.10;94.00;;;;;;5035206;28;20036;-79
2023/10/13 07:50:39;;;;;;;51.38;8.43;;;19.10;93.80;;;;;;5039537;28;20067;-78
2023/10/13 07:53:18;;;;;;;47.25;9.27;;;19.20;94.00;;;;;;5037616;28;20032;-81
2023/10/13 07:55:46;;;;;;;;;;;19.20;93.80;;;;;;5026707;28;20029;-76
2023/10/13 07:58:13;;;;;;;39.15;10.00;;;19.30;93.70;;;;;;5030123;28;19956;-77
2023/10/13 08:00:47;;;;;;;53.63;9.32;;;19.30;93.60;;;;;;5019052;28;20086;-77
2023/10/13 08:05:57;;;;;;;39.80;8.80;;;19.40;93.50;;;;;;5014957;28;20033;-77
2023/10/13 08:08:25;;;;;;;36.00;8.15;;;19.40;93.50;;;;;;5028474;28;20032;-76
2023/10/13 08:10:55;;;;;;;37.10;8.98;;;19.30;93.30;;;;;;5020551;28;20022;-77
2023/10/13 08:13:22;;;;;;;37.85;9.50;;;19.30;93.40;;;;;;5027482;28;20064;-78
2023/10/13 08:15:48;;;;;;;49.33;9.27;;;19.40;93.30;;;;;;5018648;28;20113;-76
2023/10/13 08:18:29;;;;;;;35.50;9.30;;;19.40;93.40;;;;;;5035140;28;20059;-78
2023/10/13 08:21:02;;;;;;;40.72;8.77;;;19.30;93.30;;;;;;5032051;28;20120;-79
2023/10/13 08:24:06;;;;;;;33.47;8.40;;;19.40;93.20;;;;;;5050619;28;20033;-77
2023/10/13 08:26:32;;;;;;;39.45;8.90;;;19.30;93.40;;;;;;5036178;28;20053;-78
2023/10/13 08:29:49;;;;;;;42.13;8.85;;;19.30;93.40;;;;;;5041000;28;20028;-80
2023/10/13 08:32:19;;;;;;;59.67;10.68;;;19.40;92.90;;;;;;5026478;28;20061;-79
2023/10/13 08:35:34;;;;;;;44.22;8.88;;;19.60;92.60;;;;;;5034223;28;20044;-77
2023/10/13 08:43:12;;;;;;;53.15;11.77;;;19.60;92.30;;;;;;5029736;28;20091;-80
2023/10/13 08:48:07;;;;;;;38.47;8.57;;;19.80;92.40;;;;;;5039311;28;20108;-78
2023/10/13 08:50:55;;;;;;;42.30;8.88;;;19.80;92.40;;;;;;5055050;28;20035;-77
2023/10/13 08:53:32;;;;;;;42.10;8.13;;;19.80;92.30;;;;;;5035588;28;20028;-76
2023/10/13 08:56:05;;;;;;;37.20;8.73;;;19.90;92.40;;;;;;5053719;28;20039;-76
2023/10/13 08:59:05;;;;;;;38.58;8.68;;;19.90;92.50;;;;;;5040499;28;20112;-76
2023/10/13 09:03:38;;;;;;;39.25;9.35;;;19.90;92.40;;;;;;5050061;28;20111;-77
2023/10/13 09:04:32;;;;;;;44.40;10.27;;;19.90;92.20;;;;;;5033755;28;20033;-77
2023/10/13 09:07:09;;;;;;;40.47;9.45;;;19.80;92.30;;;;;;5032341;28;20305;-79
2023/10/13 09:12:19;;;;;;;43.22;9.18;;;19.80;92.50;;;;;;5023538;28;20029;-77
2023/10/13 09:15:05;;;;;;;46.13;10.00;;;19.80;92.40;;;;;;5030978;28;20765;-76
2023/10/13 09:20:23;;;;;;;33.53;8.25;;;19.70;92.80;;;;;;5032301;28;20060;-76
2023/10/13 09:22:54;;;;;;;34.33;8.23;;;19.60;92.90;;;;;;5022168;28;20506;-77
2023/10/13 09:25:22;;;;;;;37.28;8.75;;;19.60;93.00;;;;;;5028996;28;20528;-74
2023/10/13 09:27:53;;;;;;;37.05;9.20;;;19.60;93.20;;;;;;5025008;28;20040;-73
2023/10/13 09:30:22;;;;;;;45.97;10.23;;;19.50;93.40;;;;;;5038595;28;20037;-73
2023/10/13 09:33:01;;;;;;;41.35;8.75;;;19.60;93.60;;;;;;5025916;28;20025;-73
2023/10/13 09:35:28;;;;;;;41.83;9.13;;;19.70;93.60;;;;;;5034188;28;20116;-72
2023/10/13 09:37:57;;;;;;;59.30;12.10;;;19.80;93.60;;;;;;5031612;28;20062;-74
2023/10/13 09:40:33;;;;;;;41.92;9.90;;;19.90;93.80;;;;;;5027213;28;20056;-72
2023/10/13 09:43:08;;;;;;;43.85;9.95;;;19.90;93.70;;;;;;5029589;28;20792;-73
2023/10/13 09:45:38;;;;;;;48.42;9.75;;;19.80;93.90;;;;;;5026080;28;20152;-73
2023/10/13 09:48:16;;;;;;;51.47;10.55;;;19.70;94.50;;;;;;5029836;28;20044;-73
2023/10/13 09:50:46;;;;;;;48.83;10.15;;;19.50;94.50;;;;;;5025419;28;20041;-76
2023/10/13 09:53:14;;;;;;;56.95;11.25;;;19.50;95.00;;;;;;5029792;28;20024;-73
2023/10/13 09:55:46;;;;;;;48.58;9.77;;;19.40;95.30;;;;;;5025144;28;20047;-74
2023/10/13 09:58:14;;;;;;;49.35;10.38;;;19.40;95.40;;;;;;5030419;28;20102;-74
2023/10/13 10:00:55;;;;;;;46.03;9.63;;;19.50;95.10;;;;;;5018432;28;20504;-73
2023/10/13 10:03:40;;;;;;;52.35;11.02;;;19.60;94.90;;;;;;5032594;28;20021;-74
2023/10/13 10:06:08;;;;;;;53.90;9.52;;;19.80;94.50;;;;;;5017935;28;20040;-73
2023/10/13 10:08:34;;;;;;;54.40;9.60;;;19.90;94.40;;;;;;5030708;28;20029;-73
2023/10/13 10:11:26;;;;;;;48.40;10.10;;;19.90;94.50;;;;;;5017401;28;22329;-77
2023/10/13 10:14:17;;;;;;;47.72;10.05;;;19.90;94.70;;;;;;5025744;28;20036;-75
2023/10/13 10:17:07;;;;;;;56.08;10.65;;;19.70;95.40;;;;;;5030741;28;20328;-75
2023/10/13 10:19:36;;;;;;;63.22;11.80;;;19.60;95.90;;;;;;5018454;28;20358;-75
2023/10/13 10:22:16;;;;;;;54.90;11.02;;;19.40;96.40;;;;;;5024913;28;22170;-76
2023/10/13 10:24:42;;;;;;;56.03;10.80;;;19.30;96.60;;;;;;5023100;28;20595;-75
2023/10/13 10:27:10;;;;;;;53.58;10.73;;;19.30;97.00;;;;;;5023394;28;20068;-76
2023/10/13 10:29:36;;;;;;;63.80;10.17;;;19.20;97.20;;;;;;5022095;28;20048;-75
2023/10/13 10:32:13;;;;;;;59.17;10.45;;;19.20;97.30;;;;;;5029960;28;20397;-78
2023/10/13 10:34:39;;;;;;;59.63;10.45;;;19.20;97.30;;;;;;5032062;28;20102;-77
2023/10/13 10:37:09;;;;;;;75.05;11.95;;;19.00;97.80;;;;;;5041823;28;20404;-75
2023/10/13 10:39:56;;;;;;;77.20;12.13;;;18.90;98.30;;;;;;5035937;28;20054;-76
2023/10/13 10:42:23;;;;;;;62.05;11.93;;;18.90;98.60;;;;;;5022268;28;20670;-80
2023/10/13 10:44:55;;;;;;;57.72;10.32;;;19.10;98.50;;;;;;5023368;28;20064;-78
2023/10/13 10:47:30;;;;;;;68.35;10.75;;;19.30;97.80;;;;;;5014463;28;20125;-77
2023/10/13 10:49:58;;;;;;;51.53;9.18;;;19.30;97.90;;;;;;5021799;28;20252;-75
2023/10/13 10:52:26;;;;;;;62.83;12.15;;;19.50;97.20;;;;;;5007436;28;20136;-76
2023/10/13 10:55:00;;;;;;;42.13;9.43;;;19.50;97.10;;;;;;5022824;28;20037;-77
2023/10/13 10:57:29;;;;;;;52.35;9.32;;;19.40;97.00;;;;;;5019985;28;20037;-80
2023/10/13 11:00:10;;;;;;;53.85;9.93;;;19.50;97.20;;;;;;5020609;28;20560;-77
2023/10/13 11:02:37;;;;;;;57.30;10.10;;;19.60;96.30;;;;;;5015001;28;20033;-74
2023/10/13 11:05:05;;;;;;;59.88;9.43;;;19.80;95.70;;;;;;5031743;28;20032;-77
2023/10/13 11:07:34;;;;;;;42.40;7.80;;;19.90;95.80;;;;;;5013925;28;20769;-77
2023/10/13 11:10:20;;;;;;;61.47;9.57;;;20.00;95.10;;;;;;5029597;28;20040;-74
2023/10/13 11:12:56;;;;;;;59.63;8.40;;;20.30;95.20;;;;;;5012019;28;20025;-75
2023/10/13 11:15:22;;;;;;;52.22;8.82;;;20.50;94.10;;;;;;5030389;28;20136;-75
2023/10/13 11:17:54;;;;;;;51.78;8.98;;;20.70;94.20;;;;;;5019553;28;20032;-77
2023/10/13 11:20:43;;;;;;;48.38;9.60;;;20.80;93.70;;;;;;5033535;28;20043;-80
2023/10/13 11:23:11;;;;;;;50.05;8.40;;;20.90;93.20;;;;;;5020648;28;20080;-74
2023/10/13 11:25:37;;;;;;;58.55;8.68;;;21.00;92.50;;;;;;5029448;28;20797;-74
2023/10/13 11:28:20;;;;;;;59.20;9.25;;;21.00;92.30;;;;;;5020498;28;20041;-74
2023/10/13 11:30:50;;;;;;;63.63;10.02;;;21.00;92.40;;;;;;5033014;28;20051;-75
2023/10/13 11:33:23;;;;;;;42.90;8.73;;;21.00;92.40;;;;;;5017054;28;20089;-74
2023/10/13 11:35:54;;;;;;;50.40;7.80;;;21.00;92.20;;;;;;5031472;28;20025;-75
2023/10/13 11:38:28;;;;;;;46.75;7.90;;;21.30;91.80;;;;;;5021116;28;20095;-74
2023/10/13 11:41:34;;;;;;;51.20;8.80;;;21.30;91.60;;;;;;5030073;28;20032;-77
2023/10/13 11:48:36;;;;;;;48.72;8.18;;;21.20;91.10;;;;;;5016635;28;20587;-75
2023/10/13 11:51:07;;;;;;;53.60;8.27;;;21.10;91.40;;;;;;5040161;28;20524;-74
2023/10/13 11:53:34;;;;;;;46.75;9.13;;;21.10;91.00;;;;;;5021894;28;20044;-75
2023/10/13 11:56:08;;;;;;;54.13;8.93;;;21.00;91.50;;;;;;5034334;28;20041;-74
2023/10/13 11:58:34;;;;;;;59.33;8.95;;;20.90;92.10;;;;;;5022215;28;20025;-75
2023/10/13 12:01:19;;;;;;;65.85;9.57;;;20.80;92.20;;;;;;5031610;28;20032;-74
2023/10/13 12:04:57;;;;;;;47.15;7.82;;;20.80;91.70;;;;;;5020411;28;20041;-81
2023/10/13 12:11:50;;;;;;;38.47;7.22;;;21.30;91.40;;;;;;5029007;28;20554;-75
2023/10/13 12:14:21;;;;;;;46.33;9.23;;;21.60;90.90;;;;;;5018645;28;20047;-74
2023/10/13 12:16:50;;;;;;;45.58;7.63;;;21.40;90.60;;;;;;5034866;28;20060;-76
2023/10/13 12:19:23;;;;;;;46.67;7.85;;;21.50;90.60;;;;;;5014452;28;20082;-75
2023/10/13 12:21:54;;;;;;;41.63;7.72;;;21.80;90.00;;;;;;5031525;28;20025;-75
2023/10/13 12:29:22;;;;;;;50.13;7.97;;;22.30;88.60;;;;;;5025564;28;20040;-74
2023/10/13 12:29:56;;;;;;;39.38;7.55;;;22.20;89.30;;;;;;5020247;28;20064;-77
2023/10/13 12:32:25;;;;;;;;;;;22.20;87.70;;;;;;5030026;28;20724;-74
2023/10/13 12:37:52;;;;;;;48.58;6.97;;;22.10;88.20;;;;;;5029717;28;20029;-73
2023/10/13 12:49:49;;;;;;;37.30;6.57;;;21.60;90.20;;;;;;5020930;28;20067;-76
2023/10/13 12:51:40;;;;;;;45.10;7.68;;;21.80;89.20;;;;;;5019864;28;20041;-74
2023/10/13 12:54:14;;;;;;;43.33;7.55;;;21.50;90.00;;;;;;5021067;28;20382;-80
2023/10/13 12:56:41;;;;;;;45.67;7.25;;;21.30;90.30;;;;;;5020885;28;20291;-75
2023/10/13 12:59:13;;;;;;;38.88;6.57;;;21.50;90.20;;;;;;5026165;28;20028;-76
2023/10/13 13:01:42;;;;;;;45.78;8.05;;;21.60;90.00;;;;;;5017216;28;20066;-75
2023/10/13 13:04:18;;;;;;;51.33;7.95;;;21.80;90.00;;;;;;5025779;28;20076;-76
2023/10/13 13:06:44;;;;;;;36.15;6.97;;;21.80;89.50;;;;;;5019744;28;20037;-78
2023/10/13 13:09:10;;;;;;;49.58;7.22;;;21.90;88.80;;;;;;5029076;28;20693;-80
2023/10/13 13:11:39;;;;;;;49.67;8.48;;;22.00;88.60;;;;;;5022346;28;20045;-79
2023/10/13 13:14:08;;;;;;;51.85;7.82;;;22.20;87.90;;;;;;5025168;28;20036;-76
2023/10/13 13:16:34;;;;;;;48.08;8.20;;;22.70;86.20;;;;;;5018100;28;20592;-75
2023/10/13 13:19:03;;;;;;;38.88;6.63;;;23.20;83.70;;;;;;5029704;28;20120;-80
2023/10/13 13:21:29;;;;;;;44.38;8.13;;;24.00;80.50;;;;;;5025485;28;20036;-77
2023/10/13 13:23:55;;;;;;;39.72;6.95;;;23.50;81.40;;;;;;5040013;28;20139;-76
2023/10/13 13:26:21;;;;;;;39.20;8.10;;;23.00;83.60;;;;;;5024739;28;20815;-80
2023/10/13 13:28:50;;;;;;;47.00;7.10;;;23.00;84.40;;;;;;5053372;28;20078;-78
2023/10/13 13:31:17;;;;;;;37.47;6.93;;;23.80;81.80;;;;;;5030778;28;20095;-78
2023/10/13 13:33:43;;;;;;;46.70;7.97;;;23.70;80.20;;;;;;5026700;28;20041;-74
2023/10/13 13:36:13;;;;;;;48.20;7.45;;;23.20;81.80;;;;;;5015247;28;20164;-75
2023/10/13 13:38:40;;;;;;;48.53;7.97;;;22.60;83.90;;;;;;5024647;28;20025;-75
2023/10/13 13:41:16;;;;;;;43.90;7.25;;;22.90;84.40;;;;;;5011375;28;20560;-73
2023/10/13 13:44:13;;;;;;;53.42;8.55;;;23.10;83.10;;;;;;5028583;28;21498;-74
2023/10/13 13:46:32;;;;;;;40.53;7.97;;;22.90;83.10;;;;;;5011859;28;20033;-77
2023/10/13 13:49:00;;;;;;;42.80;6.78;;;22.40;85.50;;;;;;5017677;28;20115;-80
2023/10/13 13:51:27;;;;;;;47.28;8.02;;;22.60;85.10;;;;;;5012787;28;20120;-77
2023/10/13 13:53:55;;;;;;;41.03;6.72;;;22.30;86.10;;;;;;5011462;28;20777;-76
2023/10/13 13:56:25;;;;;;;47.08;7.03;;;21.90;87.50;;;;;;5017275;28;20094;-76
2023/10/13 13:58:51;;;;;;;43.60;7.90;;;22.00;87.80;;;;;;5015825;28;20056;-78
2023/10/13 14:01:19;;;;;;;50.30;8.90;;;22.20;87.20;;;;;;5022480;28;20033;-75
2023/10/13 14:03:46;;;;;;;47.15;9.00;;;22.60;86.80;;;;;;5016031;28;20025;-74
2023/10/13 14:06:18;;;;;;;42.92;7.45;;;22.60;85.80;;;;;;5020192;28;20122;-73
2023/10/13 14:08:48;;;;;;;50.83;8.52;;;22.60;86.10;;;;;;5009681;28;20056;-82
2023/10/13 14:12:25;;;;;;;46.92;7.13;;;22.50;86.10;;;;;;5027207;28;20690;-75
2023/10/13 14:14:04;;;;;;;40.33;7.13;;;22.10;86.20;;;;;;5023163;28;20702;-75
2023/10/13 14:16:33;;;;;;;40.05;6.65;;;21.70;87.80;;;;;;5029851;28;20508;-72
2023/10/13 14:19:07;;;;;;;42.88;6.90;;;21.80;87.60;;;;;;5017986;28;20029;-73
2023/10/13 14:21:34;;;;;;;44.15;6.43;;;22.20;85.90;;;;;;5026395;28;20087;-73
2023/10/13 14:24:01;;;;;;;45.25;6.85;;;22.80;82.70;;;;;;5022066;28;20199;-74
2023/10/13 14:26:27;;;;;;;31.35;5.22;;;22.90;82.00;;;;;;5027299;28;20302;-74
2023/10/13 14:29:01;;;;;;;33.47;5.78;;;23.10;80.60;;;;;;5022467;28;20029;-74
2023/10/13 14:31:29;;;;;;;30.08;6.10;;;23.70;78.10;;;;;;5030255;28;20028;-74
2023/10/13 14:33:56;;;;;;;33.40;5.55;;;23.90;76.90;;;;;;5009191;28;20159;-73
2023/10/13 14:36:22;;;;;;;28.08;4.47;;;23.40;77.60;;;;;;5023870;28;20190;-73
2023/10/13 14:38:50;;;;;;;35.42;5.70;;;22.60;80.30;;;;;;5018379;28;20061;-73
2023/10/13 14:41:18;;;;;;;39.97;6.13;;;22.20;81.90;;;;;;5020744;28;20029;-73
2023/10/13 14:43:47;;;;;;;35.55;5.63;;;22.00;83.50;;;;;;5015874;28;20346;-72
2023/10/13 14:46:15;;;;;;;30.75;5.00;;;21.90;83.60;;;;;;5031568;28;20615;-73
2023/10/13 14:48:43;;;;;;;35.63;5.55;;;21.80;84.20;;;;;;5019638;28;20041;-73
2023/10/13 14:51:12;;;;;;;36.15;5.35;;;22.10;83.10;;;;;;5034563;28;20037;-73
2023/10/13 14:53:43;;;;;;;30.42;5.68;;;22.40;82.60;;;;;;5021165;28;20064;-73
2023/10/13 14:56:10;;;;;;;28.35;4.85;;;23.90;77.80;;;;;;5039467;28;20033;-74
2023/10/13 14:58:35;;;;;;;31.15;5.18;;;25.10;72.90;;;;;;5026211;28;20106;-73
2023/10/13 15:01:03;;;;;;;31.02;5.60;;;24.80;71.60;;;;;;5030559;28;20112;-74
2023/10/13 15:03:30;;;;;;;31.88;5.13;;;23.40;76.50;;;;;;5036765;28;20067;-74
2023/10/13 15:05:55;;;;;;;28.33;4.85;;;22.80;79.50;;;;;;5026208;28;20028;-75
2023/10/13 15:08:21;;;;;;;24.55;4.95;;;23.50;77.90;;;;;;5028934;28;20033;-74
2023/10/13 15:10:47;;;;;;;29.38;4.80;;;24.00;76.40;;;;;;5021576;28;20033;-73